Time;durP1;ratioP1;P1;durP2;ratioP2;P2;SDS_P1;SDS_P2;PMS_P1;PMS_P2;Temp;Humidity;BMP_temperature;BMP_pressure;BME280_temperature;BME280_humidity;BME280_pressure;Samples;Min_cycle;Max_cycle;Signal;HPM_P1;HPM_P2
2021/03/17 00:00:30;;;;;;;11.47;6.57;;;;;;;3.42;84.67;98343.28;5007242;28;20239;-76
2021/03/17 00:02:56;;;;;;;11.83;7.27;;;;;;;3.45;84.77;98346.66;5008175;28;20234;-77
2021/03/17 00:05:26;;;;;;;11.17;7.87;;;;;;;3.56;84.00;98338.84;5005384;28;20261;-78
2021/03/17 00:07:52;;;;;;;14.27;8.50;;;;;;;3.63;83.54;98332.78;5004667;28;20212;-77
2021/03/17 00:10:19;;;;;;;13.83;8.80;;;;;;;3.66;83.66;98337.09;5004125;28;20302;-78
2021/03/17 00:12:46;;;;;;;14.47;8.27;;;;;;;3.71;83.36;98339.63;5006854;28;20206;-77
2021/03/17 00:15:13;;;;;;;13.60;8.80;;;;;;;3.71;83.48;98329.28;5003510;28;20211;-77
2021/03/17 00:17:40;;;;;;;12.57;8.03;;;;;;;3.74;83.12;98334.44;5005907;28;20218;-78
2021/03/17 00:20:08;;;;;;;11.27;8.00;;;;;;;3.74;83.45;98330.13;5006170;28;20281;-76
2021/03/17 00:22:34;;;;;;;10.60;7.73;;;;;;;3.74;83.11;98330.13;5004192;28;20299;-78
2021/03/17 00:25:00;;;;;;;9.93;7.37;;;;;;;3.69;83.40;98333.63;5005664;28;20215;-77
2021/03/17 00:27:27;;;;;;;10.40;7.23;;;;;;;3.67;83.53;98334.47;5004283;28;20266;-77
2021/03/17 00:29:53;;;;;;;13.07;8.27;;;;;;;3.73;83.81;98327.56;5005923;28;20244;-76
2021/03/17 00:32:19;;;;;;;14.47;8.63;;;;;;;3.74;83.14;98324.13;5009403;28;20230;-77
2021/03/17 00:34:46;;;;;;;11.73;7.67;;;;;;;3.77;83.02;98321.53;5006480;28;20216;-78
2021/03/17 00:37:12;;;;;;;11.73;7.57;;;;;;;3.76;83.06;98328.38;5008395;28;20231;-77
2021/03/17 00:39:38;;;;;;;10.77;7.00;;;;;;;3.76;83.46;98324.97;5008820;28;20226;-76
2021/03/17 00:42:04;;;;;;;11.87;7.90;;;;;;;3.80;82.95;98313.72;5004782;28;20289;-78
2021/03/17 00:44:30;;;;;;;10.90;7.63;;;;;;;3.88;83.24;98326.56;5006229;28;20731;-76
2021/03/17 00:46:56;;;;;;;12.47;8.10;;;;;;;3.89;82.88;98317.97;5007593;28;20246;-78
2021/03/17 00:49:22;;;;;;;12.40;8.00;;;;;;;3.87;83.11;98320.56;5008866;28;20250;-76
2021/03/17 00:51:49;;;;;;;16.10;9.33;;;;;;;3.90;82.82;98314.50;5010890;28;20235;-77
2021/03/17 00:54:15;;;;;;;11.90;7.77;;;;;;;3.89;82.65;98311.06;5013299;28;20276;-77
2021/03/17 00:56:42;;;;;;;13.63;8.07;;;;;;;3.90;82.98;98315.38;5009200;28;20244;-77
2021/03/17 00:59:08;;;;;;;14.13;8.13;;;;;;;3.93;83.00;98307.59;5008158;28;20239;-77
2021/03/17 01:01:34;;;;;;;11.57;8.47;;;;;;;3.93;82.43;98299.84;5008369;28;20268;-77
2021/03/17 01:04:00;;;;;;;11.33;8.00;;;;;;;3.94;82.74;98301.56;5009285;28;20207;-76
2021/03/17 01:06:26;;;;;;;11.70;7.77;;;;;;;3.96;83.02;98299.81;5010266;28;20226;-77
2021/03/17 01:08:52;;;;;;;12.80;8.57;;;;;;;3.95;82.69;98302.41;5014266;28;20247;-79
2021/03/17 01:11:19;;;;;;;11.93;7.80;;;;;;;3.93;83.08;98301.56;5010747;28;20227;-76
2021/03/17 01:13:45;;;;;;;10.20;7.20;;;;;;;3.89;82.99;98297.31;5012129;28;20242;-78
2021/03/17 01:16:12;;;;;;;13.27;8.27;;;;;;;3.90;82.94;98299.91;5007186;28;20238;-77
2021/03/17 01:18:38;;;;;;;10.20;7.93;;;;;;;3.80;83.21;98293.09;5009915;28;20234;-77
2021/03/17 01:21:04;;;;;;;16.43;10.03;;;;;;;3.82;82.49;98293.94;5006135;28;20829;-77
2021/03/17 01:23:30;;;;;;;15.03;9.03;;;;;;;3.79;82.80;98299.97;5009606;28;20264;-78
2021/03/17 01:25:57;;;;;;;14.27;8.17;;;;;;;3.78;82.65;98293.09;5007114;28;20250;-77
2021/03/17 01:28:23;;;;;;;13.13;8.43;;;;;;;3.76;83.35;98291.41;5008439;28;20762;-78
2021/03/17 01:30:51;;;;;;;15.73;9.37;;;;;;;3.74;83.64;98298.31;5011616;28;20246;-78
2021/03/17 01:33:18;;;;;;;10.80;7.87;;;;;;;3.75;83.20;98300.00;5011995;28;20209;-78
2021/03/17 01:35:45;;;;;;;11.47;8.60;;;;;;;3.61;84.16;98302.72;5010708;28;20246;-78
2021/03/17 01:38:12;;;;;;;14.37;8.43;;;;;;;3.57;84.28;98301.91;5008105;28;20203;-77
2021/03/17 01:40:40;;;;;;;13.50;7.80;;;;;;;3.47;85.17;98305.41;5008579;28;20291;-77
2021/03/17 01:43:07;;;;;;;12.87;8.10;;;;;;;3.27;86.81;98298.69;5006930;28;20223;-77
2021/03/17 01:45:33;;;;;;;12.73;8.80;;;;;;;3.18;87.36;98303.91;5006267;28;20736;-76
2021/03/17 01:47:59;;;;;;;13.67;9.57;;;;;;;3.30;87.04;98291.78;5013057;28;20984;-77
2021/03/17 01:50:28;;;;;;;16.73;9.87;;;;;;;3.36;86.03;98304.63;5010733;28;20242;-78
2021/03/17 01:52:54;;;;;;;14.70;9.60;;;;;;;3.31;86.93;98303.81;5009773;28;20215;-77
2021/03/17 01:55:20;;;;;;;15.47;9.27;;;;;;;3.30;87.14;98299.53;5007537;28;20322;-77
2021/03/17 01:57:47;;;;;;;13.87;9.70;;;;;;;3.39;86.04;98297.72;5007941;28;20259;-77
2021/03/17 02:00:17;;;;;;;18.20;10.80;;;;;;;3.47;85.90;98301.13;5007857;28;20234;-76
2021/03/17 02:02:48;;;;;;;19.43;10.60;;;;;;;3.55;85.68;98302.75;5004298;28;20262;-76
2021/03/17 02:05:16;;;;;;;17.30;10.50;;;;;;;3.57;85.58;98296.72;5007225;28;20211;-78
2021/03/17 02:07:43;;;;;;;13.97;8.60;;;;;;;3.46;86.22;98299.41;5010348;28;20269;-76
2021/03/17 02:10:12;;;;;;;15.10;9.63;;;;;;;3.45;86.35;98296.81;5007397;28;20243;-78
2021/03/17 02:12:47;;;;;;;13.77;8.67;;;;;;;3.30;87.41;98290.06;5008351;28;20223;-76
2021/03/17 02:15:26;;;;;;;14.67;9.40;;;;;;;3.07;89.13;98285.94;5006811;28;20215;-77
2021/03/17 02:17:53;;;;;;;16.63;10.23;;;;;;;3.13;88.32;98287.59;5007975;28;20206;-76
2021/03/17 02:21:00;;;;;;;14.37;10.30;;;;;;;3.20;88.58;98286.69;5008207;28;20222;-77
2021/03/17 02:23:29;;;;;;;17.73;10.90;;;;;;;3.26;87.49;98286.66;5007749;28;20202;-76
2021/03/17 02:26:09;;;;;;;17.47;11.03;;;;;;;3.32;87.12;98290.06;5009234;28;20237;-76
2021/03/17 02:28:47;;;;;;;19.77;10.30;;;;;;;3.39;86.85;98295.16;5011559;28;20281;-77
2021/03/17 02:31:46;;;;;;;14.17;9.63;;;;;;;3.40;87.28;98296.88;5004937;28;20246;-77
2021/03/17 02:34:15;;;;;;;13.90;9.87;;;;;;;3.39;86.70;98296.88;5006185;28;20973;-76
2021/03/17 02:36:44;;;;;;;17.07;10.53;;;;;;;3.30;87.66;98302.94;5006932;28;20249;-77
2021/03/17 02:39:16;;;;;;;16.47;10.07;;;;;;;3.20;87.83;98299.59;5006600;28;20312;-76
2021/03/17 02:41:46;;;;;;;17.73;10.43;;;;;;;3.24;87.50;98287.53;5006265;28;20235;-76
2021/03/17 02:44:15;;;;;;;17.23;10.30;;;;;;;3.19;87.86;98289.28;5009237;28;20253;-79
2021/03/17 02:46:42;;;;;;;16.47;9.97;;;;;;;3.18;87.70;98285.84;5009697;28;20284;-78
2021/03/17 02:49:10;;;;;;;16.27;10.00;;;;;;;3.24;86.91;98288.38;5007412;28;20267;-77
2021/03/17 02:51:41;;;;;;;18.63;11.07;;;;;;;3.24;87.04;98285.81;5005742;28;20261;-76
2021/03/17 02:54:10;;;;;;;17.77;10.57;;;;;;;3.31;86.28;98283.19;5007567;28;20218;-76
2021/03/17 02:56:39;;;;;;;16.43;10.50;;;;;;;3.34;86.02;98278.84;5005073;28;20239;-77
2021/03/17 02:59:07;;;;;;;18.67;11.37;;;;;;;3.35;86.22;98279.72;5004953;28;20240;-77
2021/03/17 03:01:34;;;;;;;18.00;11.37;;;;;;;3.37;85.64;98276.25;5005872;28;21098;-76
2021/03/17 03:04:00;;;;;;;24.87;11.90;;;;;;;3.39;85.43;98277.09;5004908;28;20213;-78
2021/03/17 03:06:27;;;;;;;23.10;12.03;;;;;;;3.44;85.33;98279.66;5008356;28;20234;-77
2021/03/17 03:08:54;;;;;;;17.83;9.97;;;;;;;3.44;85.50;98285.66;5009466;28;20766;-76
2021/03/17 03:11:21;;;;;;;14.07;10.10;;;;;;;3.45;85.21;98282.19;5005879;28;20242;-77
2021/03/17 03:13:50;;;;;;;16.70;9.97;;;;;;;3.47;85.28;98284.78;5006182;28;20222;-77
2021/03/17 03:16:17;;;;;;;15.63;10.37;;;;;;;3.46;84.55;98277.91;5005663;28;20305;-78
2021/03/17 03:18:45;;;;;;;15.93;10.27;;;;;;;3.49;85.11;98280.44;5007551;28;20237;-77
2021/03/17 03:21:11;;;;;;;14.93;9.37;;;;;;;3.52;84.85;98270.13;5003293;28;20233;-76
2021/03/17 03:23:39;;;;;;;13.90;8.53;;;;;;;3.51;84.73;98278.75;5008104;28;20208;-77
2021/03/17 03:26:07;;;;;;;15.83;9.33;;;;;;;3.50;84.69;98277.03;5006256;28;20234;-78
2021/03/17 03:28:34;;;;;;;17.53;11.50;;;;;;;3.53;84.54;98268.38;5009930;28;20231;-78
2021/03/17 03:31:00;;;;;;;22.77;12.70;;;;;;;3.57;84.04;98262.34;5007375;28;20921;-77
2021/03/17 03:33:26;;;;;;;18.17;11.07;;;;;;;3.50;83.91;98266.69;5010052;28;20915;-76
2021/03/17 03:35:53;;;;;;;14.03;9.30;;;;;;;3.20;85.87;98276.38;5011172;28;20353;-76
2021/03/17 03:38:19;;;;;;;5.43;3.17;;;;;;;2.87;88.15;98283.47;5009397;28;20219;-78
2021/03/17 03:40:46;;;;;;;18.03;10.77;;;;;;;2.66;89.47;98286.13;5011373;28;20238;-77
2021/03/17 03:43:15;;;;;;;15.90;8.53;;;;;;;2.53;90.25;98287.06;5012046;28;20689;-77
2021/03/17 03:45:42;;;;;;;17.43;10.03;;;;;;;2.40;91.15;98294.84;5010792;28;20250;-77
2021/03/17 03:48:09;;;;;;;15.37;8.83;;;;;;;2.32;91.67;98291.44;5012278;28;20219;-76
2021/03/17 03:50:37;;;;;;;17.23;9.43;;;;;;;2.41;91.43;98301.72;5013025;28;20243;-76
2021/03/17 03:53:11;;;;;;;16.67;8.67;;;;;;;2.36;92.45;98305.16;5008625;28;20251;-76
2021/03/17 03:55:42;;;;;;;13.93;7.43;;;;;;;2.31;92.56;98312.88;5010418;28;20242;-77
2021/03/17 03:58:12;;;;;;;16.60;7.73;;;;;;;2.32;92.78;98301.75;5008713;28;20211;-77
2021/03/17 04:00:41;;;;;;;16.57;8.43;;;;;;;2.34;92.77;98299.16;5006993;28;20235;-77
2021/03/17 04:03:08;;;;;;;14.67;8.43;;;;;;;2.37;93.03;98307.75;5005509;28;20207;-76
2021/03/17 04:06:26;;;;;;;13.63;7.80;;;;;;;2.39;92.86;98300.84;5097977;27;20539;-79
2021/03/17 04:08:55;;;;;;;14.90;8.67;;;;;;;2.41;92.97;98305.97;5094983;28;20246;-79
2021/03/17 04:11:22;;;;;;;14.33;8.37;;;;;;;2.44;92.87;98304.25;5094727;28;20236;-77
2021/03/17 04:13:49;;;;;;;17.50;9.43;;;;;;;2.63;91.63;98301.63;5096134;28;20218;-78
2021/03/17 04:16:15;;;;;;;13.67;8.17;;;;;;;2.75;90.87;98309.28;5095276;28;20232;-77
2021/03/17 04:18:44;;;;;;;15.00;8.73;;;;;;;2.63;91.51;98304.22;5095751;28;20232;-78
2021/03/17 04:21:17;;;;;;;18.50;9.47;;;;;;;2.80;89.98;98297.25;5092083;28;20224;-80
2021/03/17 04:23:46;;;;;;;19.97;11.67;;;;;;;2.89;89.42;98294.63;5090662;28;20205;-79
2021/03/17 04:26:12;;;;;;;17.93;10.90;;;;;;;2.94;88.95;98293.72;5091472;28;20246;-78
2021/03/17 04:28:40;;;;;;;21.50;12.40;;;;;;;2.98;88.96;98291.13;5092118;28;20228;-80
2021/03/17 04:31:07;;;;;;;19.13;11.03;;;;;;;3.04;88.60;98290.25;5095310;28;20255;-80
2021/03/17 04:33:36;;;;;;;17.13;10.03;;;;;;;3.11;88.72;98291.03;5095280;28;20781;-78
2021/03/17 04:36:03;;;;;;;20.10;10.87;;;;;;;3.09;88.32;98294.50;5095079;28;20758;-77
2021/03/17 04:38:30;;;;;;;15.50;8.63;;;;;;;2.89;89.45;98302.34;5095285;28;20761;-77
2021/03/17 04:40:57;;;;;;;15.50;9.03;;;;;;;2.79;90.08;98295.50;5092066;28;20307;-78
2021/03/17 04:43:24;;;;;;;16.37;10.37;;;;;;;2.91;89.09;98289.47;5092386;28;20220;-79
2021/03/17 04:45:51;;;;;;;19.00;11.07;;;;;;;3.03;88.76;98289.41;5091115;28;20235;-78
2021/03/17 04:48:17;;;;;;;20.40;12.40;;;;;;;3.12;87.86;98287.59;5091898;28;20215;-78
2021/03/17 04:50:45;;;;;;;18.60;11.47;;;;;;;3.15;86.93;98288.44;5092715;28;20240;-79
2021/03/17 04:53:11;;;;;;;19.17;10.10;;;;;;;3.15;87.09;98292.75;5094641;28;20234;-79
2021/03/17 04:55:37;;;;;;;16.30;10.30;;;;;;;2.91;88.70;98293.75;5094879;28;20331;-78
2021/03/17 04:58:09;;;;;;;20.20;11.83;;;;;;;2.97;88.01;98288.56;5095099;28;20223;-77
2021/03/17 05:00:37;;;;;;;19.03;10.87;;;;;;;3.01;87.33;98280.78;5092472;28;20880;-79
2021/03/17 05:03:05;;;;;;;14.97;8.80;;;;;;;2.98;87.25;98291.13;5092960;28;20205;-79
2021/03/17 05:05:33;;;;;;;16.77;9.23;;;;;;;2.72;89.07;98292.97;5092135;28;20236;-78
2021/03/17 05:07:59;;;;;;;15.97;9.10;;;;;;;2.79;88.64;98285.22;5092084;28;20300;-79
2021/03/17 05:10:26;;;;;;;10.90;5.97;;;;;;;2.55;90.86;98300.78;5094321;28;20825;-78
2021/03/17 05:12:53;;;;;;;14.03;7.47;;;;;;;2.37;91.64;98297.44;5095240;28;20273;-79
2021/03/17 05:15:22;;;;;;;31.63;18.00;;;;;;;2.49;91.03;98291.38;5093044;28;20665;-78
2021/03/17 05:17:49;;;;;;;19.57;10.97;;;;;;;2.59;90.61;98298.22;5081498;28;20223;-79
2021/03/17 05:20:18;;;;;;;12.33;6.90;;;;;;;2.42;91.08;98300.81;5080643;28;20241;-78
2021/03/17 05:22:45;;;;;;;14.50;8.57;;;;;;;2.36;91.73;98303.44;5080549;28;20236;-77
2021/03/17 05:25:13;;;;;;;16.63;9.30;;;;;;;2.32;91.85;98314.63;5077106;28;20285;-78
2021/03/17 05:27:39;;;;;;;16.17;9.90;;;;;;;2.33;91.93;98300.84;5079391;28;20733;-78
2021/03/17 05:30:08;;;;;;;11.87;6.83;;;;;;;2.25;92.66;98311.19;5079457;28;20217;-79
2021/03/17 05:32:36;;;;;;;17.37;11.13;;;;;;;2.26;92.56;98310.34;5078094;28;20219;-79
2021/03/17 05:35:04;;;;;;;17.03;11.00;;;;;;;2.44;91.12;98303.41;5079717;28;20917;-79
2021/03/17 05:37:30;;;;;;;20.13;11.40;;;;;;;2.53;91.03;98308.50;5080147;28;20274;-78
2021/03/17 05:39:57;;;;;;;16.40;11.27;;;;;;;2.62;90.37;98307.63;5080677;28;20243;-77
2021/03/17 05:42:23;;;;;;;18.57;10.87;;;;;;;2.72;90.19;98314.47;5080644;28;20236;-79
2021/03/17 05:44:52;;;;;;;19.27;11.37;;;;;;;2.79;89.93;98321.28;5080536;28;20239;-78
2021/03/17 05:47:19;;;;;;;17.37;10.97;;;;;;;2.87;89.31;98319.53;5080248;28;21088;-79
2021/03/17 05:49:46;;;;;;;18.43;10.43;;;;;;;2.91;89.24;98319.53;5079848;28;20225;-80
2021/03/17 05:52:15;;;;;;;16.30;10.40;;;;;;;2.93;89.00;98328.09;5078250;28;20229;-78
2021/03/17 05:54:41;;;;;;;20.57;11.33;;;;;;;2.99;88.44;98325.47;5077822;28;20205;-78
2021/03/17 05:57:07;;;;;;;20.17;10.90;;;;;;;3.07;88.38;98326.31;5077605;28;20245;-78
2021/03/17 05:59:34;;;;;;;21.30;11.17;;;;;;;3.08;88.36;98328.00;5079138;28;20228;-80
2021/03/17 06:02:00;;;;;;;15.40;10.50;;;;;;;3.15;87.91;98334.00;5067154;28;20285;-77
2021/03/17 06:04:27;;;;;;;18.40;10.60;;;;;;;3.20;88.16;98334.84;5074504;28;20221;-79
2021/03/17 06:06:57;;;;;;;17.73;11.20;;;;;;;3.14;87.66;98334.84;5079487;28;20241;-78
2021/03/17 06:09:24;;;;;;;17.03;9.50;;;;;;;3.10;88.17;98336.59;5081339;28;20314;-78
2021/03/17 06:11:51;;;;;;;18.37;11.17;;;;;;;3.13;87.54;98341.72;5078793;28;20285;-79
2021/03/17 06:14:19;;;;;;;18.80;10.93;;;;;;;3.19;87.84;98341.69;5080682;28;20209;-78
2021/03/17 06:16:45;;;;;;;19.10;10.80;;;;;;;3.28;87.11;98345.94;5081699;28;20260;-80
2021/03/17 06:19:13;;;;;;;18.47;10.43;;;;;;;3.32;87.03;98336.47;5081786;28;20240;-79
2021/03/17 06:21:40;;;;;;;16.67;10.57;;;;;;;3.36;87.23;98343.31;5081914;28;20263;-79
2021/03/17 06:24:08;;;;;;;16.87;9.53;;;;;;;3.28;87.42;98339.06;5082532;28;20217;-80
2021/03/17 06:26:34;;;;;;;17.87;10.67;;;;;;;3.14;87.69;98345.16;5080044;28;20232;-79
2021/03/17 06:29:00;;;;;;;18.57;11.50;;;;;;;3.22;87.21;98341.69;5080060;28;20291;-79
2021/03/17 06:31:27;;;;;;;18.50;11.07;;;;;;;3.17;87.33;98348.56;5079230;28;20240;-79
2021/03/17 06:33:53;;;;;;;18.37;10.27;;;;;;;3.01;88.38;98357.25;5079260;28;20212;-78
2021/03/17 06:36:21;;;;;;;17.07;10.17;;;;;;;2.91;89.27;98360.75;5080787;28;20237;-79
2021/03/17 06:38:47;;;;;;;17.27;10.23;;;;;;;2.87;89.30;98350.44;5081274;28;20233;-80
2021/03/17 06:41:16;;;;;;;22.90;10.93;;;;;;;2.87;88.95;98355.59;5081735;28;20236;-79
2021/03/17 06:43:43;;;;;;;22.13;10.97;;;;;;;2.88;88.94;98353.88;5080385;28;20205;-80
2021/03/17 06:46:10;;;;;;;18.07;9.33;;;;;;;2.71;90.25;98359.09;5080186;28;20261;-79
2021/03/17 06:48:38;;;;;;;18.07;10.87;;;;;;;2.67;90.63;98352.25;5079153;28;20217;-80
2021/03/17 06:51:09;;;;;;;23.43;11.37;;;;;;;2.71;90.36;98353.97;5078958;28;20235;-79
2021/03/17 06:53:38;;;;;;;16.10;10.30;;;;;;;2.75;90.24;98360.81;5079941;28;20208;-78
2021/03/17 06:56:11;;;;;;;18.47;11.27;;;;;;;2.88;89.40;98362.44;5081024;28;20240;-77
2021/03/17 06:58:42;;;;;;;20.17;10.97;;;;;;;2.92;89.88;98362.44;5082263;28;20251;-80
2021/03/17 07:01:32;;;;;;;19.43;11.30;;;;;;;3.03;89.45;98366.72;5081069;28;20240;-79
2021/03/17 07:03:59;;;;;;;19.07;10.97;;;;;;;3.10;89.04;98367.50;5080820;28;20197;-78
2021/03/17 07:06:25;;;;;;;21.53;10.43;;;;;;;3.04;89.64;98372.72;5080871;28;20746;-78
2021/03/17 07:08:52;;;;;;;23.53;11.43;;;;;;;2.98;89.66;98373.59;5081439;28;20326;-79
2021/03/17 07:11:23;;;;;;;18.37;11.47;;;;;;;3.05;89.78;98369.25;5080934;28;20991;-79
2021/03/17 07:13:57;;;;;;;21.43;12.17;;;;;;;3.00;90.57;98382.19;5080899;28;20223;-79
2021/03/17 07:16:46;;;;;;;16.33;10.10;;;;;;;2.97;90.99;98376.19;5080711;28;20620;-77
2021/03/17 07:19:29;;;;;;;20.67;11.13;;;;;;;2.94;92.15;98381.34;5074058;28;20246;-78
2021/03/17 07:22:03;;;;;;;19.87;9.53;;;;;;;2.97;92.82;98376.19;5080338;28;20237;-80
2021/03/17 07:24:29;;;;;;;10.03;4.87;;;;;;;2.92;92.76;98372.75;5081181;28;20231;-78
2021/03/17 07:26:55;;;;;;;21.47;10.13;;;;;;;2.93;92.40;98371.91;5081188;28;20267;-79
2021/03/17 07:29:24;;;;;;;22.13;12.10;;;;;;;2.96;92.24;98370.19;5081452;28;20243;-79
2021/03/17 07:31:51;;;;;;;22.13;10.50;;;;;;;3.04;92.31;98378.72;5079965;28;20241;-78
2021/03/17 07:34:25;;;;;;;21.13;11.50;;;;;;;3.09;92.53;98383.84;5081507;28;20220;-78
2021/03/17 07:36:57;;;;;;;18.67;11.60;;;;;;;3.14;91.69;98387.25;5080824;28;20240;-79
2021/03/17 07:39:26;;;;;;;19.57;11.47;;;;;;;3.15;91.86;98388.13;5080648;28;20338;-78
2021/03/17 07:41:53;;;;;;;14.00;7.10;;;;;;;3.22;92.64;98388.09;5080850;28;20239;-77
2021/03/17 07:44:20;;;;;;;20.00;10.63;;;;;;;3.27;91.86;98385.47;5079527;28;20208;-78
2021/03/17 07:46:48;;;;;;;22.93;12.07;;;;;;;3.25;91.34;98382.91;5080590;28;20244;-78
2021/03/17 07:49:15;;;;;;;11.93;6.37;;;;;;;3.30;91.86;98389.75;5080724;28;20237;-77
2021/03/17 07:51:44;;;;;;;18.27;9.03;;;;;;;3.29;91.22;98386.34;5080515;28;20245;-79
2021/03/17 07:54:15;;;;;;;8.60;4.67;;;;;;;3.26;90.94;98397.50;5080817;28;20213;-79
2021/03/17 07:56:42;;;;;;;19.93;10.67;;;;;;;3.24;89.70;98394.09;5080566;28;20233;-79
2021/03/17 07:59:09;;;;;;;17.60;9.83;;;;;;;3.27;91.18;98401.81;5081371;28;20237;-77
2021/03/17 08:01:35;;;;;;;19.33;9.93;;;;;;;3.31;91.61;98401.78;5079473;28;20228;-80
2021/03/17 08:04:03;;;;;;;20.93;10.37;;;;;;;3.28;91.80;98398.34;5080586;28;20212;-80
2021/03/17 08:06:29;;;;;;;13.43;6.97;;;;;;;3.32;91.27;98398.34;5080006;28;21056;-78
2021/03/17 08:08:57;;;;;;;18.80;9.77;;;;;;;3.32;91.51;98398.34;5081001;28;20252;-79
2021/03/17 08:11:24;;;;;;;18.90;8.70;;;;;;;3.36;91.63;98400.03;5080240;28;20684;-76
2021/03/17 08:13:51;;;;;;;13.57;8.10;;;;;;;3.32;90.61;98404.34;5079778;28;20227;-75
2021/03/17 08:16:19;;;;;;;11.53;5.67;;;;;;;3.30;90.41;98400.94;5079962;28;20778;-78
2021/03/17 08:18:47;;;;;;;13.10;7.27;;;;;;;3.28;90.90;98403.50;5080238;28;20237;-79
2021/03/17 08:21:15;;;;;;;10.63;4.43;;;;;;;3.31;91.41;98409.50;5079279;28;20232;-78
2021/03/17 08:23:43;;;;;;;14.17;7.83;;;;;;;3.32;90.09;98406.06;5080986;28;20227;-79
2021/03/17 08:26:11;;;;;;;10.33;5.97;;;;;;;3.35;90.91;98404.34;5080146;28;20282;-79
2021/03/17 08:28:48;;;;;;;5.23;3.10;;;;;;;3.32;89.53;98398.34;5080607;28;20246;-79
2021/03/17 08:31:52;;;;;;;9.60;5.07;;;;;;;3.32;87.37;98395.75;5079652;28;20243;-78
2021/03/17 08:34:26;;;;;;;11.43;6.90;;;;;;;3.33;86.99;98389.72;5080773;28;20220;-79
2021/03/17 08:36:55;;;;;;;13.60;7.37;;;;;;;3.52;87.49;98395.66;5079911;28;20244;-78
2021/03/17 08:39:54;;;;;;;13.93;6.43;;;;;;;3.52;85.55;98391.34;5079296;28;20317;-78
2021/03/17 08:42:28;;;;;;;12.20;6.77;;;;;;;3.67;87.70;98396.38;5044020;28;20237;-78
2021/03/17 08:44:55;;;;;;;10.37;5.87;;;;;;;3.75;87.35;98395.47;5043018;28;20252;-80
2021/03/17 08:47:24;;;;;;;6.37;3.27;;;;;;;3.75;87.00;98392.91;5061793;28;20625;-81
2021/03/17 08:49:51;;;;;;;6.93;4.00;;;;;;;3.73;86.47;98397.22;5079879;28;20229;-79
2021/03/17 08:52:19;;;;;;;10.53;6.17;;;;;;;3.73;86.47;98394.63;5082036;28;20751;-78
2021/03/17 08:55:03;;;;;;;11.47;6.73;;;;;;;3.79;85.91;98392.03;5083505;28;20220;-80
2021/03/17 08:58:01;;;;;;;5.77;3.77;;;;;;;3.88;85.82;98389.38;5083577;28;20294;-77
2021/03/17 09:00:49;;;;;;;8.53;6.20;;;;;;;4.07;85.19;98387.50;5048575;28;20275;-78
2021/03/17 09:03:45;;;;;;;7.87;5.50;;;;;;;4.17;83.96;98386.56;5081974;28;20304;-79
2021/03/17 09:06:14;;;;;;;3.33;2.57;;;;;;;4.15;82.48;98374.50;5083085;28;20241;-79
2021/03/17 09:08:48;;;;;;;3.73;2.33;;;;;;;4.12;81.98;98382.28;5083771;28;20764;-78
2021/03/17 09:11:59;;;;;;;8.97;4.10;;;;;;;4.23;82.82;98380.47;5081783;28;20242;-79
2021/03/17 09:14:30;;;;;;;4.93;2.67;;;;;;;4.47;82.41;98370.75;5083069;28;20248;-77
2021/03/17 09:17:18;;;;;;;5.27;2.77;;;;;;;4.49;77.52;98369.03;5082412;28;20241;-78
2021/03/17 09:20:09;;;;;;;6.03;3.17;;;;;;;4.69;77.91;98361.91;5082991;28;20237;-79
2021/03/17 09:22:39;;;;;;;6.30;3.50;;;;;;;4.89;78.20;98365.97;5083747;28;20234;-79
2021/03/17 09:25:18;;;;;;;8.07;3.43;;;;;;;5.07;78.52;98365.72;5083144;28;20740;-79
2021/03/17 09:27:51;;;;;;;6.13;3.40;;;;;;;5.18;76.13;98366.47;5082858;28;20463;-76
2021/03/17 09:30:19;;;;;;;6.40;3.10;;;;;;;5.30;76.56;98367.16;5082861;28;20236;-76
2021/03/17 09:32:45;;;;;;;4.53;2.53;;;;;;;5.29;74.06;98365.44;5082753;28;20299;-77
2021/03/17 09:35:12;;;;;;;4.03;2.23;;;;;;;5.40;74.64;98369.59;5081813;28;20212;-77
2021/03/17 09:37:39;;;;;;;4.43;2.47;;;;;;;5.34;72.46;98363.66;5084039;28;20607;-78
2021/03/17 09:40:06;;;;;;;5.77;2.37;;;;;;;5.45;73.50;98366.09;5082388;28;20615;-77
2021/03/17 09:42:36;;;;;;;6.90;3.00;;;;;;;5.50;71.54;98367.72;5083374;28;20261;-77
2021/03/17 09:45:04;;;;;;;4.87;2.43;;;;;;;5.57;73.13;98371.09;5083810;28;20241;-78
2021/03/17 09:47:31;;;;;;;5.47;2.40;;;;;;;5.62;71.47;98378.78;5082040;28;20233;-78
2021/03/17 09:49:58;;;;;;;7.40;1.70;;;;;;;5.57;70.23;98377.13;5083410;28;21154;-77
2021/03/17 09:52:24;;;;;;;3.80;1.30;;;;;;;5.53;68.86;98375.47;5082732;28;20244;-77
2021/03/17 09:54:51;;;;;;;2.40;1.40;;;;;;;5.55;67.27;98383.19;5083061;28;20224;-76
2021/03/17 09:57:17;;;;;;;4.57;1.30;;;;;;;5.64;65.74;98379.59;5082929;28;20244;-76
2021/03/17 09:59:45;;;;;;;5.27;1.53;;;;;;;5.75;64.61;98376.00;5083634;28;20716;-77
2021/03/17 10:02:14;;;;;;;4.13;1.60;;;;;;;6.01;65.89;98373.88;5081012;28;20229;-77
2021/03/17 10:04:43;;;;;;;4.18;1.50;;;;;;;6.33;65.33;98361.22;5082144;28;20224;-78
2021/03/17 10:07:11;;;;;;;3.43;1.37;;;;;;;6.39;64.38;98351.63;5081980;28;20247;-78
2021/03/17 10:09:39;;;;;;;3.33;1.45;;;;;;;6.28;59.86;98369.97;5082803;28;20351;-77
2021/03/17 10:12:07;;;;;;;0.95;0.60;;;;;;;5.94;57.46;98361.00;5080495;28;20229;-78
2021/03/17 10:14:34;;;;;;;1.23;0.70;;;;;;;5.60;55.87;98366.69;5082808;28;20223;-77
2021/03/17 10:17:03;;;;;;;0.77;0.20;;;;;;;5.21;56.96;98373.31;5081998;28;20601;-78
2021/03/17 10:19:30;;;;;;;0.13;0.13;;;;;;;5.00;61.06;98380.47;5082798;28;20233;-75
2021/03/17 10:21:57;;;;;;;3.40;0.30;;;;;;;4.95;63.60;98382.25;5080937;28;20236;-75
2021/03/17 10:24:40;;;;;;;3.50;0.77;;;;;;;4.89;60.26;98378.88;5082369;28;20630;-76
2021/03/17 10:27:09;;;;;;;0.50;0.43;;;;;;;4.85;58.29;98375.47;5081729;28;20286;-77
2021/03/17 10:29:35;;;;;;;4.53;1.10;;;;;;;4.85;59.48;98374.63;5081974;28;20241;-77
2021/03/17 10:32:05;;;;;;;1.10;0.60;;;;;;;4.88;61.74;98379.78;5081212;28;20693;-78
2021/03/17 10:34:31;;;;;;;0.57;0.20;;;;;;;4.89;59.08;98371.13;5081953;28;20269;-77
2021/03/17 10:36:58;;;;;;;1.43;0.73;;;;;;;4.92;60.15;98379.69;5081879;28;20767;-78
2021/03/17 10:39:28;;;;;;;0.50;0.33;;;;;;;4.93;60.11;98372.81;5082250;28;20233;-77
2021/03/17 10:41:56;;;;;;;0.43;0.30;;;;;;;4.98;59.21;98369.31;5082071;28;20237;-77
2021/03/17 10:44:24;;;;;;;0.30;0.20;;;;;;;5.02;59.22;98375.28;5081642;28;20219;-76
2021/03/17 10:47:05;;;;;;;1.40;0.30;;;;;;;5.05;61.22;98376.97;5081024;28;20240;-76
2021/03/17 10:49:33;;;;;;;0.87;0.20;;;;;;;5.05;57.19;98379.56;5082057;28;20236;-77
2021/03/17 10:51:59;;;;;;;0.20;0.10;;;;;;;5.07;55.45;98372.63;5081788;28;20660;-77
2021/03/17 10:54:33;;;;;;;1.67;0.40;;;;;;;5.07;54.68;98376.06;5081625;28;20216;-76
2021/03/17 10:57:00;;;;;;;1.93;0.50;;;;;;;5.03;55.81;98369.22;5080740;28;20243;-77
2021/03/17 10:59:30;;;;;;;1.70;1.10;;;;;;;5.10;56.75;98370.88;5081867;28;20340;-77
2021/03/17 11:02:18;;;;;;;0.27;0.10;;;;;;;5.18;56.19;98375.94;5079226;28;20233;-76
2021/03/17 11:05:10;;;;;;;0.83;0.23;;;;;;;5.19;60.84;98375.06;5080895;28;20224;-76
2021/03/17 11:08:07;;;;;;;0.47;0.30;;;;;;;5.14;55.80;98372.53;5081710;28;20664;-78
2021/03/17 11:10:42;;;;;;;0.83;0.37;;;;;;;5.06;53.75;98373.53;5077618;28;20275;-77
2021/03/17 11:13:29;;;;;;;0.80;0.40;;;;;;;5.08;54.94;98370.03;5081769;28;20303;-76
2021/03/17 11:15:58;;;;;;;1.37;0.37;;;;;;;5.11;53.64;98364.84;5080012;28;20309;-76
2021/03/17 11:18:26;;;;;;;2.57;0.67;;;;;;;5.13;55.10;98365.66;5081368;28;20692;-78
2021/03/17 11:20:54;;;;;;;0.30;0.30;;;;;;;5.25;55.04;98369.81;5080906;28;20240;-77
2021/03/17 11:23:22;;;;;;;1.47;0.70;;;;;;;5.49;55.39;98363.44;5080073;28;20273;-77
2021/03/17 11:25:48;;;;;;;1.37;0.50;;;;;;;5.52;52.86;98357.38;5080865;28;20236;-77
2021/03/17 11:28:16;;;;;;;0.93;0.50;;;;;;;5.41;53.57;98357.53;5081380;28;20934;-76
2021/03/17 11:30:44;;;;;;;0.93;0.50;;;;;;;5.42;53.87;98351.44;5081320;28;20241;-76
2021/03/17 11:33:11;;;;;;;2.57;0.53;;;;;;;5.41;54.72;98349.75;5080578;28;20213;-77
2021/03/17 11:35:39;;;;;;;4.27;2.43;;;;;;;5.41;54.84;98354.94;5081304;28;20478;-76
2021/03/17 11:38:05;;;;;;;0.73;0.43;;;;;;;5.30;56.47;98351.66;5080559;28;20614;-78
2021/03/17 11:40:32;;;;;;;1.03;0.50;;;;;;;5.22;55.63;98355.19;5080039;28;20360;-77
2021/03/17 11:43:06;;;;;;;1.50;0.80;;;;;;;5.19;55.11;98359.56;5081545;28;20247;-77